sensor_id;sensor_type;location;lat;lon;timestamp;pressure;altitude;pressure_sealevel;temperature;humidity
53671;BME280;39571;48.612;8.088;2023-04-27T08:15:02;100041.03;;;13.42;100.00
53671;BME280;39571;48.612;8.088;2023-04-27T08:17:27;100040.66;;;13.60;100.00
53671;BME280;39571;48.612;8.088;2023-04-27T08:19:52;100044.59;;;13.80;100.00
53671;BME280;39571;48.612;8.088;2023-04-27T08:22:18;100039.75;;;14.00;100.00
53671;BME280;39571;48.612;8.088;2023-04-27T08:24:43;100037.03;;;14.04;100.00
53671;BME280;39571;48.612;8.088;2023-04-27T08:27:08;100033.94;;;14.24;100.00
53671;BME280;39571;48.612;8.088;2023-04-27T08:29:34;100041.16;;;14.16;100.00
53671;BME280;39571;48.612;8.088;2023-04-27T08:32:01;100037.09;;;14.01;100.00
53671;BME280;39571;48.612;8.088;2023-04-27T08:42:58;100029.91;;;14.46;100.00
53671;BME280;39571;48.612;8.088;2023-04-27T08:45:24;100024.41;;;14.55;100.00
53671;BME280;39571;48.612;8.088;2023-04-27T08:47:51;100029.38;;;14.68;100.00
53671;BME280;39571;48.612;8.088;2023-04-27T08:55:17;100034.00;;;14.92;100.00
53671;BME280;39571;48.612;8.088;2023-04-27T08:57:56;100030.22;;;15.02;100.00
53671;BME280;39571;48.612;8.088;2023-04-27T09:00:25;100031.78;;;15.09;100.00
53671;BME280;39571;48.612;8.088;2023-04-27T09:02:51;100036.34;;;15.02;100.00
53671;BME280;39571;48.612;8.088;2023-04-27T09:05:21;100030.22;;;15.02;100.00
53671;BME280;39571;48.612;8.088;2023-04-27T09:08:03;100029.97;;;15.11;100.00
53671;BME280;39571;48.612;8.088;2023-04-27T09:10:49;100036.97;;;15.12;100.00
53671;BME280;39571;48.612;8.088;2023-04-27T09:13:14;100036.56;;;15.27;100.00
53671;BME280;39571;48.612;8.088;2023-04-27T09:15:44;100039.72;;;15.38;100.00
53671;BME280;39571;48.612;8.088;2023-04-27T09:18:18;100038.72;;;15.44;100.00
53671;BME280;39571;48.612;8.088;2023-04-27T09:20:48;100048.25;;;15.49;100.00
53671;BME280;39571;48.612;8.088;2023-04-27T09:23:34;100040.31;;;15.51;100.00
53671;BME280;39571;48.612;8.088;2023-04-27T09:26:01;100035.59;;;15.90;100.00
53671;BME280;39571;48.612;8.088;2023-04-27T09:28:29;100037.28;;;16.20;100.00
53671;BME280;39571;48.612;8.088;2023-04-27T09:30:57;100047.97;;;16.43;97.26
53671;BME280;39571;48.612;8.088;2023-04-27T09:33:31;100048.22;;;16.63;100.00
53671;BME280;39571;48.612;8.088;2023-04-27T09:36:01;100033.50;;;16.81;100.00
53671;BME280;39571;48.612;8.088;2023-04-27T09:38:28;100026.00;;;17.18;100.00
53671;BME280;39571;48.612;8.088;2023-04-27T09:40:55;100038.75;;;17.32;100.00
53671;BME280;39571;48.612;8.088;2023-04-27T09:43:21;100029.56;;;17.89;99.74
53671;BME280;39571;48.612;8.088;2023-04-27T09:45:48;100029.44;;;17.92;91.66
53671;BME280;39571;48.612;8.088;2023-04-27T09:48:14;100029.59;;;18.32;89.24
53671;BME280;39571;48.612;8.088;2023-04-27T09:50:40;100023.16;;;18.38;82.55
53671;BME280;39571;48.612;8.088;2023-04-27T09:53:11;100024.97;;;18.37;86.19
53671;BME280;39571;48.612;8.088;2023-04-27T09:55:47;100010.97;;;18.55;90.07
53671;BME280;39571;48.612;8.088;2023-04-27T10:01:06;100012.50;;;18.17;84.04
53671;BME280;39571;48.612;8.088;2023-04-27T10:08:51;100007.88;;;18.01;86.91
53671;BME280;39571;48.612;8.088;2023-04-27T10:11:17;100001.81;;;17.99;86.87
53671;BME280;39571;48.612;8.088;2023-04-27T10:13:53;100001.81;;;17.99;89.63
53671;BME280;39571;48.612;8.088;2023-04-27T10:16:19;100003.16;;;18.09;89.02
53671;BME280;39571;48.612;8.088;2023-04-27T10:18:54;100005.69;;;18.12;86.58
53671;BME280;39571;48.612;8.088;2023-04-27T10:21:20;99996.03;;;18.31;89.04
53671;BME280;39571;48.612;8.088;2023-04-27T10:23:47;99995.91;;;18.34;79.78
53671;BME280;39571;48.612;8.088;2023-04-27T10:26:24;99989.22;;;18.47;80.61
53671;BME280;39571;48.612;8.088;2023-04-27T10:29:06;99993.53;;;18.28;73.61
53671;BME280;39571;48.612;8.088;2023-04-27T10:31:32;99999.88;;;18.24;75.88
53671;BME280;39571;48.612;8.088;2023-04-27T10:34:15;100002.78;;;18.18;71.49
53671;BME280;39571;48.612;8.088;2023-04-27T10:36:40;100002.00;;;18.16;68.92
53671;BME280;39571;48.612;8.088;2023-04-27T10:39:22;99996.94;;;18.10;70.65
53671;BME280;39571;48.612;8.088;2023-04-27T10:41:53;99995.34;;;18.06;67.25
53671;BME280;39571;48.612;8.088;2023-04-27T10:44:26;100004.06;;;18.08;74.00
53671;BME280;39571;48.612;8.088;2023-04-27T10:47:21;99995.09;;;18.34;77.66
53671;BME280;39571;48.612;8.088;2023-04-27T10:49:53;99994.66;;;18.44;71.84
53671;BME280;39571;48.612;8.088;2023-04-27T10:52:18;99995.66;;;18.62;70.61
53671;BME280;39571;48.612;8.088;2023-04-27T10:54:45;99998.22;;;18.43;69.77
53671;BME280;39571;48.612;8.088;2023-04-27T10:57:10;99999.59;;;18.53;70.96
53671;BME280;39571;48.612;8.088;2023-04-27T10:59:50;99995.44;;;18.46;76.92
53671;BME280;39571;48.612;8.088;2023-04-27T11:02:16;99991.81;;;18.69;75.34
53671;BME280;39571;48.612;8.088;2023-04-27T11:04:48;99981.94;;;18.73;76.63
53671;BME280;39571;48.612;8.088;2023-04-27T11:07:25;99985.41;;;18.95;86.83
53671;BME280;39571;48.612;8.088;2023-04-27T11:09:51;99988.47;;;18.86;71.76
53671;BME280;39571;48.612;8.088;2023-04-27T11:12:17;99979.56;;;18.87;77.89
53671;BME280;39571;48.612;8.088;2023-04-27T11:14:42;99982.09;;;18.90;69.40
53671;BME280;39571;48.612;8.088;2023-04-27T11:17:08;99983.28;;;18.83;69.52
53671;BME280;39571;48.612;8.088;2023-04-27T11:19:43;99976.41;;;18.79;68.39
53671;BME280;39571;48.612;8.088;2023-04-27T11:22:10;99969.78;;;18.89;71.47
53671;BME280;39571;48.612;8.088;2023-04-27T11:24:35;99962.56;;;19.11;71.03
53671;BME280;39571;48.612;8.088;2023-04-27T11:27:01;99958.56;;;19.21;71.58
53671;BME280;39571;48.612;8.088;2023-04-27T11:29:36;99955.56;;;19.29;70.41
53671;BME280;39571;48.612;8.088;2023-04-27T11:32:02;99953.50;;;19.16;67.73
53671;BME280;39571;48.612;8.088;2023-04-27T11:34:28;99945.69;;;19.32;70.26
53671;BME280;39571;48.612;8.088;2023-04-27T11:37:00;99939.44;;;19.33;69.96
53671;BME280;39571;48.612;8.088;2023-04-27T11:39:28;99946.44;;;19.34;69.83
53671;BME280;39571;48.612;8.088;2023-04-27T11:41:53;99941.03;;;19.37;70.27
53671;BME280;39571;48.612;8.088;2023-04-27T11:44:24;99933.31;;;19.31;72.41
53671;BME280;39571;48.612;8.088;2023-04-27T11:46:50;99933.06;;;19.37;69.85
53671;BME280;39571;48.612;8.088;2023-04-27T11:49:17;99932.13;;;19.38;68.85
53671;BME280;39571;48.612;8.088;2023-04-27T11:51:44;99933.72;;;19.42;69.72
53671;BME280;39571;48.612;8.088;2023-04-27T11:54:10;99921.16;;;19.27;66.11
53671;BME280;39571;48.612;8.088;2023-04-27T11:56:41;99933.25;;;19.14;67.30
53671;BME280;39571;48.612;8.088;2023-04-27T11:59:20;99924.53;;;18.92;63.92
53671;BME280;39571;48.612;8.088;2023-04-27T12:01:47;99925.13;;;18.98;68.50
53671;BME280;39571;48.612;8.088;2023-04-27T12:04:13;99919.97;;;19.14;70.25
53671;BME280;39571;48.612;8.088;2023-04-27T12:06:38;99918.13;;;19.16;65.18
53671;BME280;39571;48.612;8.088;2023-04-27T12:09:03;99915.09;;;19.05;64.43
53671;BME280;39571;48.612;8.088;2023-04-27T12:11:29;99917.84;;;19.22;67.70
53671;BME280;39571;48.612;8.088;2023-04-27T12:13:55;99918.84;;;19.38;66.42
53671;BME280;39571;48.612;8.088;2023-04-27T12:16:21;99918.84;;;19.38;65.03
53671;BME280;39571;48.612;8.088;2023-04-27T12:18:48;99918.16;;;19.53;68.06
53671;BME280;39571;48.612;8.088;2023-04-27T12:23:26;99910.25;;;19.71;65.29
53671;BME280;39571;48.612;8.088;2023-04-27T12:25:51;99904.34;;;19.83;64.67
53671;BME280;39571;48.612;8.088;2023-04-27T12:30:36;99905.41;;;19.61;61.82
53671;BME280;39571;48.612;8.088;2023-04-27T12:33:02;99903.06;;;19.73;63.84
53671;BME280;39571;48.612;8.088;2023-04-27T12:35:33;99897.28;;;19.64;60.99
53671;BME280;39571;48.612;8.088;2023-04-27T12:37:58;99900.19;;;19.77;65.74
53671;BME280;39571;48.612;8.088;2023-04-27T12:42:54;99894.97;;;19.93;66.68
53671;BME280;39571;48.612;8.088;2023-04-27T12:45:19;99902.97;;;20.10;64.22
